sensor_id;sensor_type;location;lat;lon;timestamp;pressure;altitude;pressure_sealevel;temperature;humidity
38880;BME280;25887;30.194;-97.880;2024-02-26T00:01:09;98198.53;;;29.83;36.28
38880;BME280;25887;30.194;-97.880;2024-02-26T00:03:35;98202.38;;;29.79;36.32
38880;BME280;25887;30.194;-97.880;2024-02-26T00:06:16;98201.94;;;29.74;36.27
38880;BME280;25887;30.194;-97.880;2024-02-26T00:08:44;98203.13;;;29.70;36.56
38880;BME280;25887;30.194;-97.880;2024-02-26T00:11:11;98202.66;;;29.65;36.65
38880;BME280;25887;30.194;-97.880;2024-02-26T00:13:37;98210.00;;;29.61;36.60
38880;BME280;25887;30.194;-97.880;2024-02-26T00:16:19;98212.19;;;29.56;36.74
38880;BME280;25887;30.194;-97.880;2024-02-26T00:18:45;98216.19;;;29.51;36.57
38880;BME280;25887;30.194;-97.880;2024-02-26T00:21:12;98215.66;;;29.46;36.58
38880;BME280;25887;30.194;-97.880;2024-02-26T00:23:38;98214.34;;;29.40;36.79
38880;BME280;25887;30.194;-97.880;2024-02-26T00:26:04;98213.97;;;29.33;36.68
38880;BME280;25887;30.194;-97.880;2024-02-26T00:28:30;98220.50;;;29.29;36.71
38880;BME280;25887;30.194;-97.880;2024-02-26T00:30:57;98219.03;;;29.25;36.76
38880;BME280;25887;30.194;-97.880;2024-02-26T00:33:23;98220.47;;;29.18;36.79
38880;BME280;25887;30.194;-97.880;2024-02-26T00:36:04;98218.34;;;29.12;37.01
38880;BME280;25887;30.194;-97.880;2024-02-26T00:38:30;98217.13;;;29.05;37.13
38880;BME280;25887;30.194;-97.880;2024-02-26T00:40:56;98220.13;;;29.00;37.23
38880;BME280;25887;30.194;-97.880;2024-02-26T00:43:39;98223.16;;;28.96;36.99
38880;BME280;25887;30.194;-97.880;2024-02-26T00:46:08;98227.19;;;28.89;37.43
38880;BME280;25887;30.194;-97.880;2024-02-26T00:48:34;98226.81;;;28.82;37.47
38880;BME280;25887;30.194;-97.880;2024-02-26T00:51:00;98221.88;;;28.77;37.52
38880;BME280;25887;30.194;-97.880;2024-02-26T00:53:27;98233.66;;;28.73;37.35
38880;BME280;25887;30.194;-97.880;2024-02-26T00:55:54;98228.13;;;28.65;37.43
38880;BME280;25887;30.194;-97.880;2024-02-26T00:58:21;98223.28;;;28.59;37.90
38880;BME280;25887;30.194;-97.880;2024-02-26T01:00:47;98235.03;;;28.55;37.51
38880;BME280;25887;30.194;-97.880;2024-02-26T01:03:13;98228.53;;;28.48;37.61
38880;BME280;25887;30.194;-97.880;2024-02-26T01:05:40;98229.03;;;28.42;37.83
38880;BME280;25887;30.194;-97.880;2024-02-26T01:08:06;98244.25;;;28.38;37.84
38880;BME280;25887;30.194;-97.880;2024-02-26T01:10:46;98241.13;;;28.33;37.90
38880;BME280;25887;30.194;-97.880;2024-02-26T01:13:12;98246.19;;;28.23;37.95
38880;BME280;25887;30.194;-97.880;2024-02-26T01:15:39;98248.56;;;28.15;37.96
38880;BME280;25887;30.194;-97.880;2024-02-26T01:18:06;98243.72;;;28.09;37.86
38880;BME280;25887;30.194;-97.880;2024-02-26T01:20:32;98245.16;;;28.02;37.88
38880;BME280;25887;30.194;-97.880;2024-02-26T01:22:58;98256.03;;;27.97;37.95
38880;BME280;25887;30.194;-97.880;2024-02-26T01:25:25;98259.97;;;27.92;38.29
38880;BME280;25887;30.194;-97.880;2024-02-26T01:27:51;98258.72;;;27.85;38.04
38880;BME280;25887;30.194;-97.880;2024-02-26T01:30:17;98262.56;;;27.81;38.14
38880;BME280;25887;30.194;-97.880;2024-02-26T01:32:44;98277.03;;;27.75;38.14
38880;BME280;25887;30.194;-97.880;2024-02-26T01:35:26;98283.50;;;27.71;38.51
38880;BME280;25887;30.194;-97.880;2024-02-26T01:37:52;98278.72;;;27.63;38.27
38880;BME280;25887;30.194;-97.880;2024-02-26T01:40:18;98275.78;;;27.55;38.71
38880;BME280;25887;30.194;-97.880;2024-02-26T01:42:59;98277.69;;;27.53;38.41
38880;BME280;25887;30.194;-97.880;2024-02-26T01:45:26;98279.06;;;27.46;38.60
38880;BME280;25887;30.194;-97.880;2024-02-26T01:47:55;98276.03;;;27.39;38.65
38880;BME280;25887;30.194;-97.880;2024-02-26T01:50:41;98290.25;;;27.37;38.60
38880;BME280;25887;30.194;-97.880;2024-02-26T01:53:18;98288.03;;;27.31;39.03
38880;BME280;25887;30.194;-97.880;2024-02-26T01:55:46;98294.63;;;27.25;39.01
38880;BME280;25887;30.194;-97.880;2024-02-26T01:58:13;98299.25;;;27.21;38.74
38880;BME280;25887;30.194;-97.880;2024-02-26T02:01:15;98296.94;;;27.17;39.23
38880;BME280;25887;30.194;-97.880;2024-02-26T02:03:45;98300.84;;;27.11;39.04
38880;BME280;25887;30.194;-97.880;2024-02-26T02:06:12;98299.25;;;27.09;39.40
38880;BME280;25887;30.194;-97.880;2024-02-26T02:08:39;98303.03;;;27.05;39.53
38880;BME280;25887;30.194;-97.880;2024-02-26T02:11:18;98316.31;;;27.03;39.18
38880;BME280;25887;30.194;-97.880;2024-02-26T02:14:04;98320.00;;;27.01;39.27
38880;BME280;25887;30.194;-97.880;2024-02-26T02:16:31;98324.84;;;26.94;39.65
38880;BME280;25887;30.194;-97.880;2024-02-26T02:18:58;98319.88;;;26.89;39.46
38880;BME280;25887;30.194;-97.880;2024-02-26T02:21:26;98326.22;;;26.87;39.57
38880;BME280;25887;30.194;-97.880;2024-02-26T02:23:53;98322.91;;;26.83;39.88
38880;BME280;25887;30.194;-97.880;2024-02-26T02:26:19;98318.69;;;26.81;39.97
38880;BME280;25887;30.194;-97.880;2024-02-26T02:28:47;98335.47;;;26.80;40.12
38880;BME280;25887;30.194;-97.880;2024-02-26T02:31:15;98337.44;;;26.76;40.25
38880;BME280;25887;30.194;-97.880;2024-02-26T02:34:17;98337.44;;;26.76;39.89
38880;BME280;25887;30.194;-97.880;2024-02-26T02:36:53;98337.88;;;26.70;40.36
38880;BME280;25887;30.194;-97.880;2024-02-26T02:39:45;98341.66;;;26.66;40.35
38880;BME280;25887;30.194;-97.880;2024-02-26T02:42:11;98348.94;;;26.62;40.17
38880;BME280;25887;30.194;-97.880;2024-02-26T02:47:41;98360.25;;;26.50;40.72
38880;BME280;25887;30.194;-97.880;2024-02-26T02:50:08;98362.25;;;26.47;40.65
38880;BME280;25887;30.194;-97.880;2024-02-26T02:52:34;98365.28;;;26.41;40.33
38880;BME280;25887;30.194;-97.880;2024-02-26T02:55:01;98375.13;;;26.37;41.08
38880;BME280;25887;30.194;-97.880;2024-02-26T02:57:28;98386.09;;;26.31;40.85
38880;BME280;25887;30.194;-97.880;2024-02-26T02:59:55;98389.09;;;26.25;41.06
38880;BME280;25887;30.194;-97.880;2024-02-26T03:02:23;98383.47;;;26.17;41.14
38880;BME280;25887;30.194;-97.880;2024-02-26T03:04:52;98388.38;;;26.08;41.36
38880;BME280;25887;30.194;-97.880;2024-02-26T03:07:42;98382.56;;;26.03;41.28
38880;BME280;25887;30.194;-97.880;2024-02-26T03:10:29;98385.88;;;25.93;41.66
38880;BME280;25887;30.194;-97.880;2024-02-26T03:12:56;98385.69;;;25.81;41.93
38880;BME280;25887;30.194;-97.880;2024-02-26T03:15:41;98399.97;;;25.77;41.36
38880;BME280;25887;30.194;-97.880;2024-02-26T03:18:29;98396.78;;;25.72;42.32
38880;BME280;25887;30.194;-97.880;2024-02-26T03:20:55;98404.34;;;25.63;42.49
38880;BME280;25887;30.194;-97.880;2024-02-26T03:23:21;98406.41;;;25.58;42.94
38880;BME280;25887;30.194;-97.880;2024-02-26T03:25:47;98408.41;;;25.54;42.89
38880;BME280;25887;30.194;-97.880;2024-02-26T03:28:14;98406.97;;;25.48;43.51
38880;BME280;25887;30.194;-97.880;2024-02-26T03:30:47;98407.91;;;25.47;43.96
38880;BME280;25887;30.194;-97.880;2024-02-26T03:33:14;98413.53;;;25.41;44.12
38880;BME280;25887;30.194;-97.880;2024-02-26T03:35:40;98411.09;;;25.38;44.38
38880;BME280;25887;30.194;-97.880;2024-02-26T03:38:06;98412.22;;;25.34;44.69
38880;BME280;25887;30.194;-97.880;2024-02-26T03:40:32;98407.16;;;25.31;44.95
38880;BME280;25887;30.194;-97.880;2024-02-26T03:42:59;98413.34;;;25.30;45.38
38880;BME280;25887;30.194;-97.880;2024-02-26T03:45:27;98415.19;;;25.28;45.52
38880;BME280;25887;30.194;-97.880;2024-02-26T03:47:53;98409.38;;;25.23;45.82
38880;BME280;25887;30.194;-97.880;2024-02-26T03:50:19;98411.31;;;25.19;46.16
38880;BME280;25887;30.194;-97.880;2024-02-26T03:52:46;98409.00;;;25.15;46.45
38880;BME280;25887;30.194;-97.880;2024-02-26T03:55:12;98408.41;;;25.10;46.35
38880;BME280;25887;30.194;-97.880;2024-02-26T04:00:54;98410.38;;;25.06;46.58
38880;BME280;25887;30.194;-97.880;2024-02-26T04:03:24;98418.50;;;25.01;46.67
38880;BME280;25887;30.194;-97.880;2024-02-26T04:05:51;98420.38;;;24.99;46.94
38880;BME280;25887;30.194;-97.880;2024-02-26T04:08:17;98432.81;;;24.96;47.01
38880;BME280;25887;30.194;-97.880;2024-02-26T04:10:43;98431.41;;;24.90;47.15
38880;BME280;25887;30.194;-97.880;2024-02-26T04:13:09;98430.63;;;24.88;47.27
38880;BME280;25887;30.194;-97.880;2024-02-26T04:15:36;98432.50;;;24.86;47.28
38880;BME280;25887;30.194;-97.880;2024-02-26T04:18:02;98429.97;;;24.85;47.11
38880;BME280;25887;30.194;-97.880;2024-02-26T04:20:29;98433.59;;;24.82;47.17
38880;BME280;25887;30.194;-97.880;2024-02-26T04:22:55;98445.34;;;24.77;47.60
38880;BME280;25887;30.194;-97.880;2024-02-26T04:25:21;98444.56;;;24.74;47.75
38880;BME280;25887;30.194;-97.880;2024-02-26T04:27:47;98440.41;;;24.70;47.87
38880;BME280;25887;30.194;-97.880;2024-02-26T04:30:14;98445.00;;;24.67;48.33
38880;BME280;25887;30.194;-97.880;2024-02-26T04:32:40;98450.50;;;24.62;48.19
38880;BME280;25887;30.194;-97.880;2024-02-26T04:35:06;98445.44;;;24.59;48.19
38880;BME280;25887;30.194;-97.880;2024-02-26T04:37:33;98446.44;;;24.57;48.10
38880;BME280;25887;30.194;-97.880;2024-02-26T04:39:59;98450.19;;;24.53;48.10
38880;BME280;25887;30.194;-97.880;2024-02-26T04:42:27;98448.50;;;24.52;48.41
38880;BME280;25887;30.194;-97.880;2024-02-26T04:44:55;98442.63;;;24.47;48.40
38880;BME280;25887;30.194;-97.880;2024-02-26T04:47:21;98450.66;;;24.43;48.63
38880;BME280;25887;30.194;-97.880;2024-02-26T04:49:56;98444.75;;;24.40;48.54
38880;BME280;25887;30.194;-97.880;2024-02-26T04:52:22;98439.91;;;24.32;48.77
38880;BME280;25887;30.194;-97.880;2024-02-26T04:54:49;98442.84;;;24.26;49.27
38880;BME280;25887;30.194;-97.880;2024-02-26T05:00:51;98443.66;;;24.11;48.76
38880;BME280;25887;30.194;-97.880;2024-02-26T05:13:13;98435.44;;;23.85;49.39
38880;BME280;25887;30.194;-97.880;2024-02-26T05:15:57;98440.84;;;23.82;49.28
38880;BME280;25887;30.194;-97.880;2024-02-26T05:18:25;98443.69;;;23.78;49.55
38880;BME280;25887;30.194;-97.880;2024-02-26T05:20:51;98442.25;;;23.72;49.41
38880;BME280;25887;30.194;-97.880;2024-02-26T05:26:57;98458.38;;;23.65;49.90
38880;BME280;25887;30.194;-97.880;2024-02-26T05:29:24;98456.13;;;23.57;50.27
38880;BME280;25887;30.194;-97.880;2024-02-26T05:35:12;98449.66;;;23.47;50.05
38880;BME280;25887;30.194;-97.880;2024-02-26T05:38:05;98451.50;;;23.45;50.06
38880;BME280;25887;30.194;-97.880;2024-02-26T05:40:36;98450.03;;;23.39;50.15
38880;BME280;25887;30.194;-97.880;2024-02-26T05:43:03;98439.78;;;23.34;50.30
38880;BME280;25887;30.194;-97.880;2024-02-26T05:45:44;98442.66;;;23.30;50.38
38880;BME280;25887;30.194;-97.880;2024-02-26T05:48:10;98445.50;;;23.25;50.58
38880;BME280;25887;30.194;-97.880;2024-02-26T05:50:39;98450.06;;;23.22;50.82
38880;BME280;25887;30.194;-97.880;2024-02-26T05:53:05;98452.75;;;23.20;50.49
38880;BME280;25887;30.194;-97.880;2024-02-26T05:55:32;98456.44;;;23.16;50.63
38880;BME280;25887;30.194;-97.880;2024-02-26T05:57:58;98455.75;;;23.13;50.73
38880;BME280;25887;30.194;-97.880;2024-02-26T06:00:26;98449.88;;;23.07;51.24
38880;BME280;25887;30.194;-97.880;2024-02-26T06:02:52;98460.47;;;23.06;51.16
38880;BME280;25887;30.194;-97.880;2024-02-26T06:05:18;98455.59;;;22.98;50.94
38880;BME280;25887;30.194;-97.880;2024-02-26T06:07:44;98451.34;;;22.96;51.29
38880;BME280;25887;30.194;-97.880;2024-02-26T06:10:11;98447.19;;;22.92;51.06
38880;BME280;25887;30.194;-97.880;2024-02-26T06:12:40;98439.53;;;22.87;51.25
38880;BME280;25887;30.194;-97.880;2024-02-26T06:15:06;98437.00;;;22.86;51.15
38880;BME280;25887;30.194;-97.880;2024-02-26T06:17:33;98440.66;;;22.82;51.43
38880;BME280;25887;30.194;-97.880;2024-02-26T06:20:00;98439.88;;;22.79;51.48
38880;BME280;25887;30.194;-97.880;2024-02-26T06:22:27;98439.09;;;22.77;51.75
38880;BME280;25887;30.194;-97.880;2024-02-26T06:24:53;98431.41;;;22.74;51.76
38880;BME280;25887;30.194;-97.880;2024-02-26T06:27:20;98436.00;;;22.69;51.80
38880;BME280;25887;30.194;-97.880;2024-02-26T06:29:47;98429.25;;;22.65;51.61
38880;BME280;25887;30.194;-97.880;2024-02-26T06:32:14;98431.97;;;22.62;51.69
38880;BME280;25887;30.194;-97.880;2024-02-26T06:34:40;98427.66;;;22.61;51.77
38880;BME280;25887;30.194;-97.880;2024-02-26T06:37:08;98431.38;;;22.57;52.18
38880;BME280;25887;30.194;-97.880;2024-02-26T06:39:34;98431.50;;;22.54;51.94
38880;BME280;25887;30.194;-97.880;2024-02-26T06:42:00;98430.72;;;22.52;52.36
38880;BME280;25887;30.194;-97.880;2024-02-26T06:44:30;98433.50;;;22.49;52.11
38880;BME280;25887;30.194;-97.880;2024-02-26T06:46:58;98432.78;;;22.45;52.56
38880;BME280;25887;30.194;-97.880;2024-02-26T06:49:27;98439.97;;;22.42;52.29
38880;BME280;25887;30.194;-97.880;2024-02-26T06:51:54;98440.09;;;22.39;52.49
38880;BME280;25887;30.194;-97.880;2024-02-26T06:54:20;98436.78;;;22.35;52.56
38880;BME280;25887;30.194;-97.880;2024-02-26T06:56:47;98436.84;;;22.34;52.35
38880;BME280;25887;30.194;-97.880;2024-02-26T06:59:13;98438.59;;;22.33;52.70
38880;BME280;25887;30.194;-97.880;2024-02-26T07:01:42;98431.75;;;22.31;53.07
38880;BME280;25887;30.194;-97.880;2024-02-26T07:04:08;98426.66;;;22.28;52.94
38880;BME280;25887;30.194;-97.880;2024-02-26T07:06:36;98429.41;;;22.24;52.74
38880;BME280;25887;30.194;-97.880;2024-02-26T07:09:04;98427.88;;;22.20;52.85
38880;BME280;25887;30.194;-97.880;2024-02-26T07:11:31;98434.03;;;22.19;53.10
38880;BME280;25887;30.194;-97.880;2024-02-26T07:13:59;98425.44;;;22.16;53.36
38880;BME280;25887;30.194;-97.880;2024-02-26T07:16:26;98421.38;;;22.10;52.95
38880;BME280;25887;30.194;-97.880;2024-02-26T07:18:53;98425.78;;;22.08;53.27
38880;BME280;25887;30.194;-97.880;2024-02-26T07:21:19;98427.69;;;22.05;53.24
38880;BME280;25887;30.194;-97.880;2024-02-26T07:23:45;98414.81;;;22.00;53.38
38880;BME280;25887;30.194;-97.880;2024-02-26T07:26:11;98419.25;;;21.98;53.31
38880;BME280;25887;30.194;-97.880;2024-02-26T07:28:38;98416.81;;;21.95;53.15
38880;BME280;25887;30.194;-97.880;2024-02-26T07:31:04;98412.59;;;21.91;53.42
38880;BME280;25887;30.194;-97.880;2024-02-26T07:33:30;98410.16;;;21.88;53.47
38880;BME280;25887;30.194;-97.880;2024-02-26T07:35:57;98409.41;;;21.84;53.34
38880;BME280;25887;30.194;-97.880;2024-02-26T07:38:23;98400.88;;;21.81;53.53
38880;BME280;25887;30.194;-97.880;2024-02-26T07:40:49;98406.31;;;21.76;53.43
38880;BME280;25887;30.194;-97.880;2024-02-26T07:43:16;98403.84;;;21.73;53.66
38880;BME280;25887;30.194;-97.880;2024-02-26T07:45:42;98403.25;;;21.66;53.36
38880;BME280;25887;30.194;-97.880;2024-02-26T07:48:09;98406.03;;;21.63;53.60
38880;BME280;25887;30.194;-97.880;2024-02-26T07:50:35;98400.13;;;21.58;53.44
38880;BME280;25887;30.194;-97.880;2024-02-26T07:53:02;98398.63;;;21.53;53.86
38880;BME280;25887;30.194;-97.880;2024-02-26T07:55:30;98410.06;;;21.50;53.74
38880;BME280;25887;30.194;-97.880;2024-02-26T07:57:58;98404.13;;;21.47;53.65
38880;BME280;25887;30.194;-97.880;2024-02-26T08:00:24;98406.09;;;21.41;53.99
38880;BME280;25887;30.194;-97.880;2024-02-26T08:02:51;98407.91;;;21.39;53.88
38880;BME280;25887;30.194;-97.880;2024-02-26T08:05:17;98392.38;;;21.36;54.07
38880;BME280;25887;30.194;-97.880;2024-02-26T08:07:43;98385.63;;;21.31;54.23
38880;BME280;25887;30.194;-97.880;2024-02-26T08:10:10;98394.41;;;21.30;54.07
38880;BME280;25887;30.194;-97.880;2024-02-26T08:12:39;98379.75;;;21.26;54.24
38880;BME280;25887;30.194;-97.880;2024-02-26T08:15:07;98378.91;;;21.25;54.29
38880;BME280;25887;30.194;-97.880;2024-02-26T08:17:34;98371.09;;;21.24;54.57
38880;BME280;25887;30.194;-97.880;2024-02-26T08:20:02;98368.72;;;21.19;54.48
38880;BME280;25887;30.194;-97.880;2024-02-26T08:22:29;98360.97;;;21.16;54.34
38880;BME280;25887;30.194;-97.880;2024-02-26T08:24:56;98367.97;;;21.15;54.46
38880;BME280;25887;30.194;-97.880;2024-02-26T08:27:22;98370.72;;;21.12;54.55
38880;BME280;25887;30.194;-97.880;2024-02-26T08:29:48;98369.03;;;21.11;54.75
38880;BME280;25887;30.194;-97.880;2024-02-26T08:32:14;98362.13;;;21.10;54.80
38880;BME280;25887;30.194;-97.880;2024-02-26T08:34:41;98370.06;;;21.07;54.93
38880;BME280;25887;30.194;-97.880;2024-02-26T08:37:07;98358.84;;;21.05;54.94
38880;BME280;25887;30.194;-97.880;2024-02-26T08:39:33;98360.59;;;21.05;55.17
38880;BME280;25887;30.194;-97.880;2024-02-26T08:41:59;98352.00;;;21.03;55.05
38880;BME280;25887;30.194;-97.880;2024-02-26T08:44:25;98351.00;;;21.05;55.19
38880;BME280;25887;30.194;-97.880;2024-02-26T08:46:52;98346.72;;;21.04;55.20
38880;BME280;25887;30.194;-97.880;2024-02-26T08:49:18;98338.09;;;21.02;55.16
38880;BME280;25887;30.194;-97.880;2024-02-26T08:51:44;98338.09;;;21.02;55.60
38880;BME280;25887;30.194;-97.880;2024-02-26T08:54:11;98345.97;;;21.01;55.45
38880;BME280;25887;30.194;-97.880;2024-02-26T08:56:37;98339.91;;;21.00;55.58
38880;BME280;25887;30.194;-97.880;2024-02-26T08:59:03;98331.28;;;20.98;55.55
38880;BME280;25887;30.194;-97.880;2024-02-26T09:01:31;98335.66;;;20.98;55.44
38880;BME280;25887;30.194;-97.880;2024-02-26T09:03:58;98333.97;;;20.97;55.46
38880;BME280;25887;30.194;-97.880;2024-02-26T09:06:24;98335.81;;;20.95;55.42
38880;BME280;25887;30.194;-97.880;2024-02-26T09:08:54;98331.50;;;20.94;55.58
38880;BME280;25887;30.194;-97.880;2024-02-26T09:11:20;98327.16;;;20.93;55.64
38880;BME280;25887;30.194;-97.880;2024-02-26T09:13:46;98329.84;;;20.91;55.61
38880;BME280;25887;30.194;-97.880;2024-02-26T09:16:13;98330.78;;;20.90;55.52
38880;BME280;25887;30.194;-97.880;2024-02-26T09:18:39;98318.69;;;20.88;55.58
38880;BME280;25887;30.194;-97.880;2024-02-26T09:21:06;98315.34;;;20.84;55.75
38880;BME280;25887;30.194;-97.880;2024-02-26T09:23:32;98323.25;;;20.82;55.67
38880;BME280;25887;30.194;-97.880;2024-02-26T09:25:59;98319.88;;;20.80;55.89
38880;BME280;25887;30.194;-97.880;2024-02-26T09:28:25;98314.66;;;20.80;55.77
38880;BME280;25887;30.194;-97.880;2024-02-26T09:30:51;98315.63;;;20.78;55.77
38880;BME280;25887;30.194;-97.880;2024-02-26T09:33:17;98320.06;;;20.76;55.93
38880;BME280;25887;30.194;-97.880;2024-02-26T09:35:43;98314.06;;;20.74;55.99
38880;BME280;25887;30.194;-97.880;2024-02-26T09:38:10;98316.59;;;20.75;56.00
38880;BME280;25887;30.194;-97.880;2024-02-26T09:40:36;98320.97;;;20.75;56.08
38880;BME280;25887;30.194;-97.880;2024-02-26T09:43:05;98307.91;;;20.75;56.07
38880;BME280;25887;30.194;-97.880;2024-02-26T09:45:35;98301.06;;;20.72;56.04
38880;BME280;25887;30.194;-97.880;2024-02-26T09:48:02;98306.28;;;20.72;56.21
38880;BME280;25887;30.194;-97.880;2024-02-26T09:50:30;98305.44;;;20.72;56.15
38880;BME280;25887;30.194;-97.880;2024-02-26T09:52:56;98313.22;;;20.73;56.30
38880;BME280;25887;30.194;-97.880;2024-02-26T09:55:25;98306.22;;;20.74;56.17
38880;BME280;25887;30.194;-97.880;2024-02-26T09:57:52;98295.91;;;20.71;56.27
38880;BME280;25887;30.194;-97.880;2024-02-26T10:00:20;98299.38;;;20.71;56.21
38880;BME280;25887;30.194;-97.880;2024-02-26T10:02:47;98302.94;;;20.69;56.17
38880;BME280;25887;30.194;-97.880;2024-02-26T10:05:16;98300.34;;;20.69;56.37
38880;BME280;25887;30.194;-97.880;2024-02-26T10:07:44;98303.88;;;20.68;56.56
38880;BME280;25887;30.194;-97.880;2024-02-26T10:10:11;98298.63;;;20.68;56.20
38880;BME280;25887;30.194;-97.880;2024-02-26T10:12:39;98305.69;;;20.66;56.25
38880;BME280;25887;30.194;-97.880;2024-02-26T10:15:05;98308.38;;;20.64;56.40
38880;BME280;25887;30.194;-97.880;2024-02-26T10:17:31;98298.88;;;20.62;56.32
38880;BME280;25887;30.194;-97.880;2024-02-26T10:20:15;98292.78;;;20.63;56.49
38880;BME280;25887;30.194;-97.880;2024-02-26T10:22:41;98299.03;;;20.58;56.38
38880;BME280;25887;30.194;-97.880;2024-02-26T10:25:08;98294.78;;;20.56;56.44
38880;BME280;25887;30.194;-97.880;2024-02-26T10:27:35;98289.69;;;20.53;56.36
38880;BME280;25887;30.194;-97.880;2024-02-26T10:32:44;98294.28;;;20.48;56.39
38880;BME280;25887;30.194;-97.880;2024-02-26T10:35:10;98302.09;;;20.48;56.37
38880;BME280;25887;30.194;-97.880;2024-02-26T10:37:37;98294.31;;;20.46;56.25
38880;BME280;25887;30.194;-97.880;2024-02-26T10:40:03;98301.34;;;20.44;56.47
38880;BME280;25887;30.194;-97.880;2024-02-26T10:42:30;98292.72;;;20.42;56.33
38880;BME280;25887;30.194;-97.880;2024-02-26T10:44:58;98298.06;;;20.39;56.09
38880;BME280;25887;30.194;-97.880;2024-02-26T10:47:24;98305.03;;;20.39;56.21
38880;BME280;25887;30.194;-97.880;2024-02-26T10:49:51;98310.25;;;20.39;56.25
38880;BME280;25887;30.194;-97.880;2024-02-26T10:52:19;98307.69;;;20.37;56.24
38880;BME280;25887;30.194;-97.880;2024-02-26T10:54:47;98316.38;;;20.38;56.28
38880;BME280;25887;30.194;-97.880;2024-02-26T10:57:18;98310.31;;;20.37;56.25
38880;BME280;25887;30.194;-97.880;2024-02-26T10:59:45;98314.75;;;20.35;56.09
38880;BME280;25887;30.194;-97.880;2024-02-26T11:02:13;98321.66;;;20.36;56.42
38880;BME280;25887;30.194;-97.880;2024-02-26T11:04:40;98319.19;;;20.33;56.25
38880;BME280;25887;30.194;-97.880;2024-02-26T11:07:09;98320.09;;;20.32;56.33
38880;BME280;25887;30.194;-97.880;2024-02-26T11:09:36;98315.78;;;20.31;56.26
38880;BME280;25887;30.194;-97.880;2024-02-26T11:12:09;98321.00;;;20.31;56.29
38880;BME280;25887;30.194;-97.880;2024-02-26T11:14:40;98331.38;;;20.33;56.29
38880;BME280;25887;30.194;-97.880;2024-02-26T11:17:11;98328.81;;;20.31;56.35
38880;BME280;25887;30.194;-97.880;2024-02-26T11:19:39;98327.97;;;20.30;56.25
38880;BME280;25887;30.194;-97.880;2024-02-26T11:22:07;98332.34;;;20.30;56.24
38880;BME280;25887;30.194;-97.880;2024-02-26T11:24:33;98331.56;;;20.28;56.12
38880;BME280;25887;30.194;-97.880;2024-02-26T11:27:03;98329.03;;;20.26;56.44
38880;BME280;25887;30.194;-97.880;2024-02-26T11:29:34;98335.09;;;20.27;56.18
38880;BME280;25887;30.194;-97.880;2024-02-26T11:32:04;98338.69;;;20.24;56.25
38880;BME280;25887;30.194;-97.880;2024-02-26T11:34:31;98340.53;;;20.21;56.12
38880;BME280;25887;30.194;-97.880;2024-02-26T11:36:57;98340.59;;;20.19;56.22
38880;BME280;25887;30.194;-97.880;2024-02-26T11:39:24;98345.03;;;20.17;56.50
38880;BME280;25887;30.194;-97.880;2024-02-26T11:41:52;98339.94;;;20.14;56.14
38880;BME280;25887;30.194;-97.880;2024-02-26T11:44:29;98342.50;;;20.16;56.27
38880;BME280;25887;30.194;-97.880;2024-02-26T11:46:56;98335.81;;;20.09;56.24
38880;BME280;25887;30.194;-97.880;2024-02-26T11:51:55;98345.44;;;20.07;56.00
38880;BME280;25887;30.194;-97.880;2024-02-26T11:54:49;98334.06;;;20.09;55.97
38880;BME280;25887;30.194;-97.880;2024-02-26T11:57:27;98335.13;;;20.03;56.01
38880;BME280;25887;30.194;-97.880;2024-02-26T12:00:13;98332.53;;;20.03;56.16
38880;BME280;25887;30.194;-97.880;2024-02-26T12:02:45;98337.91;;;19.99;56.02
38880;BME280;25887;30.194;-97.880;2024-02-26T12:05:16;98338.03;;;19.96;55.94
38880;BME280;25887;30.194;-97.880;2024-02-26T12:07:54;98339.81;;;19.95;55.84
38880;BME280;25887;30.194;-97.880;2024-02-26T12:10:30;98334.75;;;19.91;56.02
38880;BME280;25887;30.194;-97.880;2024-02-26T12:15:36;98345.25;;;19.89;56.13
38880;BME280;25887;30.194;-97.880;2024-02-26T12:18:04;98347.16;;;19.84;55.93
38880;BME280;25887;30.194;-97.880;2024-02-26T12:20:32;98348.16;;;19.82;55.93
38880;BME280;25887;30.194;-97.880;2024-02-26T12:22:58;98349.97;;;19.80;56.00
38880;BME280;25887;30.194;-97.880;2024-02-26T12:25:26;98342.31;;;19.75;56.09
38880;BME280;25887;30.194;-97.880;2024-02-26T12:27:56;98334.56;;;19.73;56.05
38880;BME280;25887;30.194;-97.880;2024-02-26T12:30:22;98337.28;;;19.70;56.34
38880;BME280;25887;30.194;-97.880;2024-02-26T12:32:50;98337.34;;;19.69;56.07
38880;BME280;25887;30.194;-97.880;2024-02-26T12:35:17;98334.78;;;19.67;56.02
38880;BME280;25887;30.194;-97.880;2024-02-26T12:37:44;98337.38;;;19.67;56.10
38880;BME280;25887;30.194;-97.880;2024-02-26T12:40:11;98335.75;;;19.65;56.13
38880;BME280;25887;30.194;-97.880;2024-02-26T12:42:39;98340.19;;;19.63;56.11
38880;BME280;25887;30.194;-97.880;2024-02-26T12:45:10;98339.34;;;19.61;56.05
38880;BME280;25887;30.194;-97.880;2024-02-26T12:47:41;98334.22;;;19.59;56.02
38880;BME280;25887;30.194;-97.880;2024-02-26T12:50:09;98327.41;;;19.55;56.10
38880;BME280;25887;30.194;-97.880;2024-02-26T12:52:37;98333.53;;;19.54;56.10
38880;BME280;25887;30.194;-97.880;2024-02-26T12:55:07;98333.63;;;19.51;56.11
38880;BME280;25887;30.194;-97.880;2024-02-26T12:57:37;98335.50;;;19.47;55.98
38880;BME280;25887;30.194;-97.880;2024-02-26T13:00:05;98335.50;;;19.47;56.25
38880;BME280;25887;30.194;-97.880;2024-02-26T13:02:34;98326.94;;;19.44;55.95
38880;BME280;25887;30.194;-97.880;2024-02-26T13:05:01;98327.84;;;19.43;56.21
38880;BME280;25887;30.194;-97.880;2024-02-26T13:07:28;98341.91;;;19.37;56.13
38880;BME280;25887;30.194;-97.880;2024-02-26T13:09:54;98341.06;;;19.38;56.30
38880;BME280;25887;30.194;-97.880;2024-02-26T13:12:21;98345.44;;;19.36;56.39
38880;BME280;25887;30.194;-97.880;2024-02-26T13:14:47;98350.78;;;19.33;56.09
38880;BME280;25887;30.194;-97.880;2024-02-26T13:17:13;98363.75;;;19.35;56.21
38880;BME280;25887;30.194;-97.880;2024-02-26T13:19:50;98351.56;;;19.35;56.31
38880;BME280;25887;30.194;-97.880;2024-02-26T13:22:21;98350.84;;;19.32;56.44